createdAt,value
2023-03-30T00:01:14.906Z,2.40
2023-03-30T00:03:44.859Z,2.10
2023-03-30T00:06:21.054Z,2.70
2023-03-30T00:08:58.387Z,2.25
2023-03-30T00:11:27.490Z,2.97
2023-03-30T00:13:55.051Z,2.83
2023-03-30T00:16:22.970Z,2.38
2023-03-30T00:18:50.690Z,2.75
2023-03-30T00:21:20.674Z,3.13
2023-03-30T00:23:48.259Z,2.40
2023-03-30T00:26:15.864Z,2.72
2023-03-30T00:28:43.029Z,2.60
2023-03-30T00:31:11.467Z,3.00
2023-03-30T00:33:45.631Z,2.78
2023-03-30T00:36:14.034Z,3.00
2023-03-30T00:38:41.057Z,3.10
2023-03-30T00:41:09.220Z,2.80
2023-03-30T00:43:58.576Z,2.92
2023-03-30T00:46:25.999Z,3.05
2023-03-30T00:48:57.852Z,2.78
2023-03-30T00:51:28.021Z,3.03
2023-03-30T00:54:05.462Z,3.03
2023-03-30T00:56:32.793Z,2.90
2023-03-30T00:59:02.664Z,3.00
2023-03-30T01:01:34.558Z,2.90
2023-03-30T01:04:03.817Z,2.80
2023-03-30T01:06:32.482Z,3.45
2023-03-30T01:08:59.813Z,2.90
2023-03-30T01:11:27.512Z,2.25
2023-03-30T01:14:06.031Z,2.72
2023-03-30T01:16:35.653Z,2.70
2023-03-30T01:19:08.226Z,2.85
2023-03-30T01:21:50.057Z,2.80
2023-03-30T01:25:03.368Z,2.58
2023-03-30T01:28:11.916Z,2.77
2023-03-30T01:31:18.759Z,2.90
2023-03-30T01:34:13.747Z,2.78
2023-03-30T01:37:36.178Z,2.50
2023-03-30T01:40:25.123Z,2.67
2023-03-30T01:43:19.517Z,3.00
2023-03-30T01:45:57.044Z,2.90
2023-03-30T01:48:53.818Z,2.70
2023-03-30T01:51:31.654Z,2.70
2023-03-30T01:54:08.035Z,2.95
2023-03-30T01:57:06.877Z,2.63
2023-03-30T02:00:11.009Z,2.43
2023-03-30T02:02:40.880Z,2.70
2023-03-30T02:05:10.330Z,2.78
2023-03-30T02:07:39.847Z,2.83
2023-03-30T02:10:10.339Z,2.37
2023-03-30T02:12:38.868Z,2.37
2023-03-30T02:15:11.452Z,2.30
2023-03-30T02:17:38.490Z,2.10
2023-03-30T02:20:10.764Z,2.00
2023-03-30T02:22:39.126Z,2.40
2023-03-30T02:25:06.684Z,2.00
2023-03-30T02:27:35.067Z,2.28
2023-03-30T02:30:02.293Z,2.17
2023-03-30T02:32:41.200Z,2.20
2023-03-30T02:35:34.974Z,2.00
2023-03-30T02:38:14.941Z,2.10
2023-03-30T02:41:00.165Z,1.90
2023-03-30T02:44:23.904Z,1.90
2023-03-30T02:47:31.389Z,2.33
2023-03-30T02:50:21.248Z,1.50
2023-03-30T02:53:14.753Z,1.77
2023-03-30T02:56:11.448Z,1.60
2023-03-30T02:59:10.384Z,2.10
2023-03-30T03:01:45.802Z,1.90
2023-03-30T03:04:15.551Z,1.90
2023-03-30T03:06:43.642Z,1.70
2023-03-30T03:09:10.591Z,2.30
2023-03-30T03:11:37.745Z,2.20
2023-03-30T03:14:04.712Z,1.98
2023-03-30T03:16:31.757Z,2.22
2023-03-30T03:18:58.704Z,2.38
2023-03-30T03:21:26.054Z,2.40
2023-03-30T03:23:52.940Z,2.13
2023-03-30T03:26:20.090Z,2.45
2023-03-30T03:28:46.979Z,1.73
2023-03-30T03:31:14.221Z,2.35
2023-03-30T03:33:41.256Z,2.03
2023-03-30T03:36:08.877Z,2.47
2023-03-30T03:38:36.376Z,2.30
2023-03-30T03:41:04.397Z,2.42
2023-03-30T03:43:31.583Z,2.15
2023-03-30T03:45:58.597Z,1.95
2023-03-30T03:48:25.929Z,2.50
2023-03-30T03:50:58.838Z,2.47
2023-03-30T03:53:28.189Z,2.38
2023-03-30T03:55:55.951Z,2.67
2023-03-30T03:58:24.689Z,2.20
2023-03-30T04:00:52.112Z,2.08
2023-03-30T04:03:19.126Z,2.63
2023-03-30T04:05:46.139Z,2.40
2023-03-30T04:08:13.021Z,2.50
2023-03-30T04:10:41.744Z,2.60
2023-03-30T04:13:08.680Z,2.60
2023-03-30T04:15:36.301Z,2.33
2023-03-30T04:18:05.324Z,2.42
2023-03-30T04:20:32.538Z,2.30
2023-03-30T04:23:01.662Z,2.40
2023-03-30T04:25:29.279Z,2.45
2023-03-30T04:27:57.284Z,2.58
2023-03-30T04:30:24.969Z,2.28
2023-03-30T04:33:02.925Z,2.65
2023-03-30T04:35:34.618Z,2.60
2023-03-30T04:38:02.507Z,2.63
2023-03-30T04:40:30.473Z,2.88
2023-03-30T04:43:02.764Z,3.78
2023-03-30T04:45:32.846Z,3.20
2023-03-30T04:47:59.964Z,2.70
2023-03-30T04:50:26.887Z,2.75
2023-03-30T04:52:56.547Z,3.10
2023-03-30T04:55:24.072Z,2.72
2023-03-30T04:57:51.293Z,3.13
2023-03-30T05:00:19.129Z,2.47
2023-03-30T05:02:46.123Z,2.65
2023-03-30T05:05:13.102Z,3.78
2023-03-30T05:07:39.968Z,2.92
2023-03-30T05:10:07.964Z,2.38
2023-03-30T05:12:34.984Z,2.35
2023-03-30T05:15:02.007Z,3.28
2023-03-30T05:17:28.938Z,3.30
2023-03-30T05:19:56.451Z,2.33
2023-03-30T05:22:23.411Z,2.30
2023-03-30T05:24:52.153Z,2.50
2023-03-30T05:27:19.790Z,2.60
2023-03-30T05:29:46.806Z,3.00
2023-03-30T05:32:13.820Z,2.10
2023-03-30T05:34:40.789Z,2.50
2023-03-30T05:37:07.806Z,2.92
2023-03-30T05:39:34.755Z,2.55
2023-03-30T05:42:01.678Z,2.70
2023-03-30T05:44:28.797Z,2.72
2023-03-30T05:46:55.965Z,2.50
2023-03-30T05:49:23.486Z,2.80
2023-03-30T05:51:51.124Z,2.80
2023-03-30T05:54:18.292Z,2.85
2023-03-30T05:56:45.411Z,2.85
2023-03-30T05:59:13.072Z,2.67
2023-03-30T06:01:40.191Z,2.60
2023-03-30T06:04:08.063Z,3.05
2023-03-30T06:06:35.105Z,3.30
2023-03-30T06:09:02.936Z,3.10
2023-03-30T06:11:30.595Z,3.10
2023-03-30T06:13:58.244Z,3.10
2023-03-30T06:16:25.702Z,3.00
2023-03-30T06:18:52.631Z,2.80
2023-03-30T06:21:19.875Z,2.70
2023-03-30T06:23:47.307Z,3.00
2023-03-30T06:26:14.710Z,2.75
2023-03-30T06:28:41.713Z,2.80
2023-03-30T06:31:12.907Z,3.30
2023-03-30T06:33:41.783Z,3.28
2023-03-30T06:36:14.320Z,3.17
2023-03-30T06:38:43.694Z,3.08
2023-03-30T06:41:12.734Z,2.67
2023-03-30T06:43:40.314Z,4.07
2023-03-30T06:46:08.420Z,2.90
2023-03-30T06:48:35.875Z,2.75
2023-03-30T06:51:04.457Z,3.00
2023-03-30T06:53:31.654Z,2.88
2023-03-30T06:55:59.301Z,3.03
2023-03-30T06:58:28.376Z,2.97
2023-03-30T07:00:55.827Z,3.15
2023-03-30T07:03:23.253Z,2.67
2023-03-30T07:05:51.856Z,2.75
2023-03-30T07:08:20.225Z,2.97
2023-03-30T07:10:48.905Z,2.67
2023-03-30T07:13:17.032Z,2.45
2023-03-30T07:15:44.942Z,2.95
2023-03-30T07:18:12.108Z,2.60
2023-03-30T07:20:39.275Z,2.60
2023-03-30T07:23:06.470Z,2.60
2023-03-30T07:25:33.417Z,2.55
2023-03-30T07:28:02.154Z,2.60
2023-03-30T07:30:29.571Z,2.72
2023-03-30T07:32:58.387Z,2.10
2023-03-30T07:35:26.177Z,2.88
2023-03-30T07:38:00.437Z,2.45
2023-03-30T07:40:30.290Z,2.45
2023-03-30T07:42:57.393Z,2.50
2023-03-30T07:45:24.277Z,2.20
2023-03-30T07:47:51.391Z,2.55
2023-03-30T07:50:18.418Z,2.30
2023-03-30T07:52:45.495Z,3.13
2023-03-30T07:55:13.076Z,2.63
2023-03-30T07:57:40.079Z,2.17
2023-03-30T08:00:10.394Z,2.05
2023-03-30T08:02:37.994Z,2.63
2023-03-30T08:05:05.643Z,2.30
2023-03-30T08:07:34.326Z,2.40
2023-03-30T08:10:01.482Z,2.15
2023-03-30T08:12:28.439Z,2.53
2023-03-30T08:14:55.963Z,2.28
2023-03-30T08:17:23.157Z,2.17
2023-03-30T08:19:50.187Z,2.10
2023-03-30T08:22:17.146Z,2.35
2023-03-30T08:24:44.118Z,2.47
2023-03-30T08:27:11.286Z,2.13
2023-03-30T08:29:38.447Z,1.40
2023-03-30T08:32:05.549Z,2.40
2023-03-30T08:34:34.275Z,1.90
2023-03-30T08:37:02.442Z,1.75
2023-03-30T08:39:32.254Z,1.63
2023-03-30T08:42:40.974Z,1.65
2023-03-30T08:45:11.936Z,2.00
2023-03-30T08:47:45.411Z,1.98
2023-03-30T08:50:31.906Z,2.10
2023-03-30T08:52:59.587Z,2.35
2023-03-30T08:55:46.249Z,2.25
2023-03-30T08:58:40.457Z,1.67
2023-03-30T09:01:23.380Z,1.88
2023-03-30T09:04:08.942Z,2.03
2023-03-30T09:07:00.516Z,1.60
2023-03-30T09:09:32.384Z,1.40
2023-03-30T09:12:34.219Z,1.50
2023-03-30T09:15:20.571Z,1.92
2023-03-30T09:17:55.183Z,1.55
2023-03-30T09:20:29.637Z,1.60
2023-03-30T09:23:01.143Z,1.27
2023-03-30T09:25:53.415Z,1.40
2023-03-30T09:28:38.911Z,1.65
2023-03-30T09:31:24.906Z,1.55
2023-03-30T09:34:14.161Z,1.70
2023-03-30T09:37:01.991Z,1.73
2023-03-30T09:39:33.473Z,1.50
2023-03-30T09:42:51.300Z,1.52
2023-03-30T09:45:25.339Z,2.10
2023-03-30T09:47:52.547Z,2.05
2023-03-30T09:50:28.511Z,2.15
2023-03-30T09:53:04.056Z,1.98
2023-03-30T09:55:38.051Z,2.30
2023-03-30T09:58:26.877Z,1.83
2023-03-30T10:01:15.035Z,1.90
2023-03-30T10:03:44.490Z,2.15
2023-03-30T10:06:20.198Z,2.45
2023-03-30T10:08:56.215Z,2.20
2023-03-30T10:11:50.079Z,2.33
2023-03-30T10:14:31.716Z,2.33
2023-03-30T10:17:00.824Z,1.90
2023-03-30T10:19:29.370Z,1.88
2023-03-30T10:21:59.915Z,2.67
2023-03-30T10:24:31.775Z,1.30
2023-03-30T10:27:07.464Z,1.30
2023-03-30T10:29:34.523Z,1.50
2023-03-30T10:32:20.900Z,1.20
2023-03-30T10:34:54.350Z,1.98
2023-03-30T10:37:44.703Z,0.57
2023-03-30T10:40:27.933Z,0.60
2023-03-30T10:42:58.168Z,0.90
2023-03-30T10:45:47.103Z,0.98
2023-03-30T10:48:29.645Z,0.70
2023-03-30T10:51:23.277Z,0.90
2023-03-30T10:54:24.861Z,0.70
2023-03-30T10:57:01.868Z,0.70
2023-03-30T11:00:02.520Z,0.70
2023-03-30T11:02:49.712Z,0.70
2023-03-30T11:05:36.013Z,0.90
2023-03-30T11:08:28.968Z,0.80
2023-03-30T11:11:00.134Z,0.90
2023-03-30T11:13:40.940Z,0.60
2023-03-30T11:16:18.910Z,0.55
2023-03-30T11:19:14.968Z,0.77
2023-03-30T11:22:04.890Z,0.70
2023-03-30T11:24:34.625Z,0.57
2023-03-30T11:27:26.656Z,0.77
2023-03-30T11:30:24.654Z,0.47
2023-03-30T11:33:02.145Z,0.60
2023-03-30T11:35:47.328Z,0.57
2023-03-30T11:38:42.030Z,0.40
2023-03-30T11:41:28.672Z,0.50
2023-03-30T11:43:56.261Z,0.75
2023-03-30T11:46:39.853Z,0.52
2023-03-30T11:49:21.981Z,0.70
2023-03-30T11:52:27.854Z,0.70
2023-03-30T11:55:27.489Z,0.75
2023-03-30T11:58:37.389Z,0.70
2023-03-30T12:02:02.865Z,0.80
2023-03-30T12:04:49.076Z,0.82
2023-03-30T12:07:43.832Z,1.10
2023-03-30T12:10:39.052Z,0.90
2023-03-30T12:13:12.424Z,1.17
2023-03-30T12:15:49.079Z,0.88
2023-03-30T12:18:37.376Z,1.08
2023-03-30T12:21:24.430Z,1.52
2023-03-30T12:24:32.310Z,0.95
2023-03-30T12:27:05.783Z,1.63
2023-03-30T12:32:30.060Z,1.50
2023-03-30T12:35:00.104Z,0.93
2023-03-30T12:37:33.549Z,1.13
2023-03-30T12:40:26.834Z,1.20
2023-03-30T12:43:20.747Z,0.88
2023-03-30T12:46:26.147Z,1.13
2023-03-30T12:49:23.277Z,0.82
2023-03-30T12:52:02.558Z,0.70
2023-03-30T12:54:56.462Z,0.60
2023-03-30T12:58:26.834Z,0.50
2023-03-30T13:01:32.110Z,0.70
2023-03-30T13:04:10.777Z,0.40
2023-03-30T13:06:49.083Z,0.50
2023-03-30T13:09:15.915Z,0.30
2023-03-30T13:11:53.397Z,0.40
2023-03-30T13:14:35.280Z,0.43
2023-03-30T13:17:02.214Z,0.40
2023-03-30T13:19:32.358Z,0.50
2023-03-30T13:22:11.679Z,0.43
2023-03-30T13:25:20.758Z,0.30
2023-03-30T13:27:52.525Z,0.60
2023-03-30T13:30:20.330Z,1.30
2023-03-30T13:33:27.432Z,0.93
2023-03-30T13:36:59.134Z,0.50
2023-03-30T14:24:27.915Z,1.20
2023-03-30T14:27:16.998Z,1.20
2023-03-30T14:29:50.882Z,1.10
2023-03-30T14:32:25.146Z,1.20
2023-03-30T14:34:54.514Z,1.27
2023-03-30T14:37:31.965Z,2.25
2023-03-30T14:39:58.994Z,2.25
2023-03-30T14:42:34.149Z,4.00
2023-03-30T14:45:01.496Z,1.60
2023-03-30T14:47:29.763Z,1.60
2023-03-30T14:50:03.140Z,1.40
2023-03-30T14:52:43.044Z,1.75
2023-03-30T14:55:20.354Z,1.13
2023-03-30T14:57:48.792Z,1.02
2023-03-30T15:00:22.837Z,1.20
2023-03-30T15:03:01.821Z,1.55
2023-03-30T15:05:42.739Z,1.30
2023-03-30T15:08:25.117Z,1.20
2023-03-30T15:11:00.687Z,2.42
2023-03-30T15:13:47.559Z,1.10
2023-03-30T15:16:29.204Z,1.48
2023-03-30T15:19:11.776Z,1.25
2023-03-30T15:21:40.476Z,1.10
2023-03-30T15:24:16.775Z,1.20
2023-03-30T15:26:50.061Z,0.95
2023-03-30T15:29:19.582Z,1.20
2023-03-30T15:31:46.741Z,1.20
2023-03-30T15:34:18.033Z,1.00
2023-03-30T15:36:52.612Z,1.30
2023-03-30T15:39:36.570Z,1.20
2023-03-30T15:42:07.626Z,1.25
2023-03-30T15:44:41.280Z,1.52
2023-03-30T15:47:18.992Z,1.02
2023-03-30T15:49:51.297Z,1.40
2023-03-30T15:52:30.523Z,1.20
2023-03-30T15:55:17.574Z,1.60
2023-03-30T15:57:50.960Z,1.20
2023-03-30T16:00:22.761Z,1.20
2023-03-30T16:02:58.325Z,1.23
2023-03-30T16:05:32.620Z,1.50
2023-03-30T16:08:00.523Z,1.15
2023-03-30T16:10:33.475Z,1.63
2023-03-30T16:13:01.384Z,1.00
2023-03-30T16:15:32.971Z,1.55
2023-03-30T16:18:00.036Z,1.20
2023-03-30T16:20:32.118Z,1.42
2023-03-30T16:22:59.554Z,1.50
2023-03-30T16:25:37.778Z,1.17
2023-03-30T16:28:17.308Z,1.23
2023-03-30T16:30:48.077Z,1.38
2023-03-30T16:33:15.008Z,1.10
2023-03-30T16:35:42.072Z,1.45
2023-03-30T16:38:14.836Z,1.52
2023-03-30T16:40:47.306Z,1.17
2023-03-30T16:43:14.241Z,1.27
2023-03-30T16:45:41.308Z,1.38
2023-03-30T16:48:10.735Z,1.20
2023-03-30T16:50:52.161Z,1.10
2023-03-30T16:53:19.146Z,1.13
2023-03-30T16:55:46.758Z,1.25
2023-03-30T16:58:16.271Z,1.70
2023-03-30T17:00:56.294Z,1.17
2023-03-30T17:03:23.242Z,1.23
2023-03-30T17:05:51.307Z,1.42
2023-03-30T17:08:29.648Z,1.00
2023-03-30T17:11:03.654Z,1.42
2023-03-30T17:13:32.062Z,1.98
2023-03-30T17:16:01.272Z,1.60
2023-03-30T17:18:29.413Z,1.65
2023-03-30T17:20:59.259Z,2.20
2023-03-30T17:23:30.360Z,1.13
2023-03-30T17:26:00.508Z,0.80
2023-03-30T17:28:31.668Z,1.50
2023-03-30T17:31:05.735Z,1.10
2023-03-30T17:33:34.880Z,1.13
2023-03-30T17:36:16.719Z,1.00
2023-03-30T17:38:44.025Z,0.65
2023-03-30T17:41:13.679Z,0.80
2023-03-30T17:43:42.183Z,0.88
2023-03-30T17:46:13.215Z,1.15
2023-03-30T17:48:41.152Z,1.20
2023-03-30T17:51:08.330Z,0.82
2023-03-30T17:53:40.287Z,1.10
2023-03-30T17:56:07.544Z,1.30
2023-03-30T17:58:36.637Z,1.10
2023-03-30T18:01:08.280Z,0.80
2023-03-30T18:03:38.303Z,1.75
2023-03-30T18:06:05.911Z,1.80
2023-03-30T18:08:33.052Z,1.17
2023-03-30T18:11:01.570Z,0.93
2023-03-30T18:13:29.776Z,1.33
2023-03-30T18:15:59.329Z,1.17
2023-03-30T18:18:29.955Z,1.02
2023-03-30T18:21:03.103Z,0.95
2023-03-30T18:23:33.570Z,1.25
2023-03-30T18:26:01.829Z,6.10
2023-03-30T18:28:31.375Z,1.60
2023-03-30T18:31:00.754Z,6.00
2023-03-30T18:33:28.365Z,1.17
2023-03-30T18:35:59.664Z,1.30
2023-03-30T18:38:29.420Z,1.63
2023-03-30T18:40:58.264Z,0.90
2023-03-30T18:43:28.681Z,1.17
2023-03-30T18:46:00.783Z,0.50
2023-03-30T18:48:29.054Z,0.90
2023-03-30T18:50:56.876Z,1.13
2023-03-30T18:53:26.717Z,1.00
2023-03-30T18:55:58.056Z,0.77
2023-03-30T18:58:33.560Z,0.88
2023-03-30T19:01:01.575Z,1.00
2023-03-30T19:03:30.111Z,1.02
2023-03-30T19:05:57.396Z,1.10
2023-03-30T19:08:26.597Z,1.10
2023-03-30T19:10:57.168Z,0.63
2023-03-30T19:13:26.505Z,0.70
2023-03-30T19:15:54.567Z,0.90
2023-03-30T19:18:22.061Z,1.00
2023-03-30T19:20:50.983Z,1.00
2023-03-30T19:23:19.202Z,0.75
2023-03-30T19:25:46.271Z,1.40
2023-03-30T19:28:15.561Z,1.20
2023-03-30T19:30:43.572Z,1.10
2023-03-30T19:33:16.818Z,0.88
2023-03-30T19:35:45.786Z,1.10
2023-03-30T19:38:14.099Z,0.68
2023-03-30T19:40:42.273Z,1.10
2023-03-30T19:43:09.751Z,2.58
2023-03-30T19:45:37.150Z,0.80
2023-03-30T19:48:04.572Z,0.80
2023-03-30T19:50:31.738Z,0.90
2023-03-30T19:52:59.669Z,0.90
2023-03-30T19:55:27.189Z,0.60
2023-03-30T19:57:54.686Z,1.20
2023-03-30T20:00:21.922Z,0.55
2023-03-30T20:02:52.714Z,0.80
2023-03-30T20:05:22.518Z,0.75
2023-03-30T20:07:50.482Z,0.95
2023-03-30T20:10:25.610Z,1.10
2023-03-30T20:12:53.401Z,0.93
2023-03-30T20:15:23.860Z,0.60
2023-03-30T20:17:56.367Z,0.60
2023-03-30T20:20:25.538Z,0.70
2023-03-30T20:22:56.366Z,0.77
2023-03-30T20:25:24.724Z,0.90
2023-03-30T20:27:52.454Z,0.70
2023-03-30T20:30:19.731Z,0.95
2023-03-30T20:32:59.569Z,0.80
2023-03-30T20:35:32.060Z,0.70
2023-03-30T20:37:58.973Z,1.17
2023-03-30T20:40:27.356Z,0.90
2023-03-30T20:43:03.188Z,0.80
2023-03-30T20:45:31.054Z,0.80
2023-03-30T20:47:59.781Z,0.90
2023-03-30T20:50:27.272Z,0.90
2023-03-30T20:52:54.257Z,0.80
2023-03-30T20:55:21.440Z,1.10
2023-03-30T20:57:48.529Z,0.93
2023-03-30T21:00:16.255Z,0.85
2023-03-30T21:02:43.269Z,1.15
2023-03-30T21:05:10.499Z,1.20
2023-03-30T21:07:38.320Z,0.93
2023-03-30T21:10:06.516Z,0.95
2023-03-30T21:12:33.515Z,0.85
2023-03-30T21:15:00.819Z,0.90
2023-03-30T21:17:27.722Z,1.00
2023-03-30T21:19:54.729Z,0.82
2023-03-30T21:22:21.751Z,1.30
2023-03-30T21:24:48.750Z,0.95
2023-03-30T21:27:15.953Z,0.73
2023-03-30T21:29:42.964Z,1.00
2023-03-30T21:32:09.949Z,1.15
2023-03-30T21:34:37.006Z,0.98
2023-03-30T21:37:04.112Z,1.15
2023-03-30T21:39:31.174Z,1.55
2023-03-30T21:41:58.080Z,1.13
2023-03-30T21:44:25.633Z,0.90
2023-03-30T21:46:52.732Z,1.00
2023-03-30T21:49:19.845Z,1.35
2023-03-30T21:51:46.967Z,0.70
2023-03-30T21:54:14.228Z,1.15
2023-03-30T21:56:41.366Z,1.00
2023-03-30T21:59:08.405Z,0.95
2023-03-30T22:01:35.637Z,1.20
2023-03-30T22:04:05.582Z,1.13
2023-03-30T22:06:33.308Z,1.00
2023-03-30T22:09:00.446Z,0.80
2023-03-30T22:11:27.798Z,1.00
2023-03-30T22:13:55.652Z,1.00
2023-03-30T22:16:31.473Z,0.90
2023-03-30T22:18:58.984Z,1.25
2023-03-30T22:21:34.719Z,0.93
2023-03-30T22:24:07.531Z,1.05
2023-03-30T22:26:36.332Z,1.17
2023-03-30T22:29:04.771Z,0.90
2023-03-30T22:31:31.931Z,1.05
2023-03-30T22:33:59.311Z,1.05
2023-03-30T22:36:30.860Z,0.95
2023-03-30T22:38:59.601Z,1.15
2023-03-30T22:41:27.093Z,0.85
2023-03-30T22:43:57.364Z,1.20
2023-03-30T22:46:26.477Z,1.20
2023-03-30T22:48:55.748Z,1.00
2023-03-30T22:51:26.579Z,1.30
2023-03-30T22:53:58.656Z,1.30
2023-03-30T22:56:27.791Z,1.15
2023-03-30T22:58:55.425Z,1.23
2023-03-30T23:01:23.547Z,1.10
2023-03-30T23:03:50.661Z,1.20
2023-03-30T23:06:19.089Z,1.23
2023-03-30T23:08:48.606Z,1.30
2023-03-30T23:11:16.110Z,1.40
2023-03-30T23:13:43.104Z,1.00
2023-03-30T23:16:13.397Z,1.35
2023-03-30T23:18:40.369Z,1.55
2023-03-30T23:21:11.081Z,1.23
2023-03-30T23:23:38.636Z,1.88
2023-03-30T23:26:09.984Z,1.35
2023-03-30T23:28:41.332Z,1.10
2023-03-30T23:31:17.919Z,1.38
2023-03-30T23:33:45.860Z,0.90
2023-03-30T23:36:13.955Z,1.20
2023-03-30T23:38:41.682Z,1.65
2023-03-30T23:41:09.467Z,1.35
2023-03-30T23:43:36.354Z,1.30
2023-03-30T23:46:03.744Z,1.33
2023-03-30T23:48:31.251Z,1.17
2023-03-30T23:50:58.579Z,1.35
2023-03-30T23:53:26.827Z,1.10
2023-03-30T23:55:54.734Z,1.00
2023-03-30T23:58:23.089Z,0.90
